Atlantic Tramp — V7SM5 — position and weather

sailwx.info

Track history (hours):
 
Tides and Currents Weather Stations Pressure Air Temp Water Temp Dewpoint Dewpoint Depression Visibility Wind Speed Wind Dir Waves Ship Positions

Atlantic Tramp

Last reported at 2016-May-24 05:31 UTC. Time now 2016-May-25 11:11 UTC.
Position N 29°58' W 090°16'.

Length 180 m; draft 6.8 m.

Type: Cargo ship. MMSI: 538003682.

Date/timePositionNaut miles runAvg speedWind from/ knotsBaromVisibWave heightAir tempDewpointWater temp
2016-May-24 05:31N 29°58' W 090°16'6 5.9
2016-May-24 04:32N 29°57' W 090°09'5 5.3
2016-May-24 03:33N 29°56' W 090°03'3 2.8
2016-May-24 02:31N 29°56' W 090°00'0 0.0
2016-May-24 01:31N 29°56' W 090°00'0 0.0
2016-May-24 00:31N 29°56' W 090°00'0 0.0
2016-May-23 23:28N 29°56' W 090°00'0 0.0
2016-May-23 22:25N 29°56' W 090°00'0 0.0
2016-May-23 21:31N 29°56' W 090°00'0 0.0
2016-May-23 20:31N 29°56' W 090°00'0 0.0
2016-May-23 19:28N 29°56' W 090°00'0 0.0
2016-May-23 18:31N 29°56' W 090°00'0 0.0
2016-May-23 14:16N 29°56' W 090°00'0 0.0
2016-May-23 13:31N 29°56' W 090°00'0 0.0
2016-May-23 12:31N 29°56' W 090°00'0 0.0
2016-May-23 11:31N 29°56' W 090°00'0 0.0
2016-May-23 10:31N 29°56' W 090°00'0 0.0
2016-May-23 09:31N 29°56' W 090°00'0 0.0
2016-May-23 08:31N 29°56' W 090°00'0 0.0
2016-May-23 07:31N 29°56' W 090°00'0 0.0
2016-May-23 06:31N 29°56' W 090°00'0 0.0
2016-May-23 05:31N 29°56' W 090°00'0 0.0
2016-May-22 09:28N 29°56' W 090°00'0 0.0
2016-May-22 08:31N 29°56' W 090°00'0 0.0
2016-May-22 07:31N 29°56' W 090°00'0 0.0
2016-May-22 06:31N 29°56' W 090°00'0 0.0
2016-May-22 05:28N 29°56' W 090°00'0 0.0
2016-May-21 23:22N 29°56' W 090°00'0 0.0
2016-May-21 13:31N 29°56' W 090°00'0 0.0
2016-May-21 12:31N 29°56' W 090°00'0 0.0
2016-May-21 11:31N 29°56' W 090°00'0 0.0
2016-May-21 10:31N 29°56' W 090°00'0 0.0
2016-May-21 09:31N 29°56' W 090°00'0 0.0
2016-May-21 08:31N 29°56' W 090°00'0 0.0
2016-May-21 07:28N 29°56' W 090°00'0 0.0
2016-May-21 06:31N 29°56' W 090°00'0 0.0
2016-May-21 05:31N 29°56' W 090°00'0 0.0
2016-May-21 04:31N 29°56' W 090°00'0 0.0
2016-May-21 03:31N 29°56' W 090°00'0 0.0
2016-May-21 02:31N 29°56' W 090°00'0 0.0
2016-May-21 01:28N 29°56' W 090°00'0 0.0
2016-May-21 00:31N 29°56' W 090°00'0 0.0
2016-May-20 23:31N 29°56' W 090°00'0 0.0
2016-May-20 22:31N 29°56' W 090°00'0 0.0
2016-May-20 21:31N 29°56' W 090°00'0 0.0
2016-May-20 20:31N 29°56' W 090°00'0 0.0
2016-May-20 19:28N 29°56' W 090°00'0 0.0
2016-May-20 18:31N 29°56' W 090°00'0 0.0
2016-May-20 17:31N 29°56' W 090°00'0 0.0
2016-May-20 15:31N 29°56' W 090°00'0 0.0
2016-May-20 14:31N 29°56' W 090°00'0 0.0
2016-May-20 13:31N 29°56' W 090°00'0 0.0
2016-May-20 12:31N 29°56' W 090°00'0 0.0
2016-May-20 11:31N 29°56' W 090°00'0 0.0
2016-May-20 10:31N 29°56' W 090°00'3 2.6
2016-May-20 09:33N 29°55' W 089°57'5 4.5
2016-May-20 08:33N 29°51' W 089°59'10 9.7
2016-May-20 07:33N 29°41' W 089°58'  
2016-May-17 16:10N 25°49' W 079°30'712.0
2016-May-17 15:33N 25°57' W 079°30'  
Track history (hours):
 
Tides and Currents Weather Stations Pressure Air Temp Water Temp Dewpoint Dewpoint Depression Visibility Wind Speed Wind Dir Waves Ship Positions

Atlantic Tramp

Last reported at 2016-May-24 05:31 UTC. Time now 2016-May-25 11:11 UTC.
Position N 29°58' W 090°16'.

Length 180 m; draft 6.8 m.

Type: Cargo ship. MMSI: 538003682.

Date/timePositionNaut miles runAvg speedWind from/ knotsBaromVisibWave heightAir tempDewpointWater temp
2016-May-24 05:31N 29°58' W 090°16'6 5.9
2016-May-24 04:32N 29°57' W 090°09'5 5.3
2016-May-24 03:33N 29°56' W 090°03'3 2.8
2016-May-24 02:31N 29°56' W 090°00'0 0.0
2016-May-24 01:31N 29°56' W 090°00'0 0.0
2016-May-24 00:31N 29°56' W 090°00'0 0.0
2016-May-23 23:28N 29°56' W 090°00'0 0.0
2016-May-23 22:25N 29°56' W 090°00'0 0.0
2016-May-23 21:31N 29°56' W 090°00'0 0.0
2016-May-23 20:31N 29°56' W 090°00'0 0.0
2016-May-23 19:28N 29°56' W 090°00'0 0.0
2016-May-23 18:31N 29°56' W 090°00'0 0.0
2016-May-23 14:16N 29°56' W 090°00'0 0.0
2016-May-23 13:31N 29°56' W 090°00'0 0.0
2016-May-23 12:31N 29°56' W 090°00'0 0.0
2016-May-23 11:31N 29°56' W 090°00'0 0.0
2016-May-23 10:31N 29°56' W 090°00'0 0.0
2016-May-23 09:31N 29°56' W 090°00'0 0.0
2016-May-23 08:31N 29°56' W 090°00'0 0.0
2016-May-23 07:31N 29°56' W 090°00'0 0.0
2016-May-23 06:31N 29°56' W 090°00'0 0.0
2016-May-23 05:31N 29°56' W 090°00'0 0.0
2016-May-22 09:28N 29°56' W 090°00'0 0.0
2016-May-22 08:31N 29°56' W 090°00'0 0.0
2016-May-22 07:31N 29°56' W 090°00'0 0.0
2016-May-22 06:31N 29°56' W 090°00'0 0.0
2016-May-22 05:28N 29°56' W 090°00'0 0.0
2016-May-21 23:22N 29°56' W 090°00'0 0.0
2016-May-21 13:31N 29°56' W 090°00'0 0.0
2016-May-21 12:31N 29°56' W 090°00'0 0.0
2016-May-21 11:31N 29°56' W 090°00'0 0.0
2016-May-21 10:31N 29°56' W 090°00'0 0.0
2016-May-21 09:31N 29°56' W 090°00'0 0.0
2016-May-21 08:31N 29°56' W 090°00'0 0.0
2016-May-21 07:28N 29°56' W 090°00'0 0.0
2016-May-21 06:31N 29°56' W 090°00'0 0.0
2016-May-21 05:31N 29°56' W 090°00'0 0.0
2016-May-21 04:31N 29°56' W 090°00'0 0.0
2016-May-21 03:31N 29°56' W 090°00'0 0.0
2016-May-21 02:31N 29°56' W 090°00'0 0.0
2016-May-21 01:28N 29°56' W 090°00'0 0.0
2016-May-21 00:31N 29°56' W 090°00'0 0.0
2016-May-20 23:31N 29°56' W 090°00'0 0.0
2016-May-20 22:31N 29°56' W 090°00'0 0.0
2016-May-20 21:31N 29°56' W 090°00'0 0.0
2016-May-20 20:31N 29°56' W 090°00'0 0.0
2016-May-20 19:28N 29°56' W 090°00'0 0.0
2016-May-20 18:31N 29°56' W 090°00'0 0.0
2016-May-20 17:31N 29°56' W 090°00'0 0.0
2016-May-20 15:31N 29°56' W 090°00'0 0.0
2016-May-20 14:31N 29°56' W 090°00'0 0.0
2016-May-20 13:31N 29°56' W 090°00'0 0.0
2016-May-20 12:31N 29°56' W 090°00'0 0.0
2016-May-20 11:31N 29°56' W 090°00'0 0.0
2016-May-20 10:31N 29°56' W 090°00'3 2.6
2016-May-20 09:33N 29°55' W 089°57'5 4.5
2016-May-20 08:33N 29°51' W 089°59'10 9.7
2016-May-20 07:33N 29°41' W 089°58'  
2016-May-17 16:10N 25°49' W 079°30'712.0
2016-May-17 15:33N 25°57' W 079°30'  

Dump ship's entire track history